sensor_id;sensor_type;location;lat;lon;timestamp;P1;durP1;ratioP1;P2;durP2;ratioP2
9842;SDS011;4960;48.736;9.108;2022-11-20T00:00:53;4.73;;;3.90;;
9842;SDS011;4960;48.736;9.108;2022-11-20T00:03:20;6.37;;;4.60;;
9842;SDS011;4960;48.736;9.108;2022-11-20T00:05:48;6.93;;;4.33;;
9842;SDS011;4960;48.736;9.108;2022-11-20T00:08:15;4.77;;;3.80;;
9842;SDS011;4960;48.736;9.108;2022-11-20T00:10:43;4.40;;;4.00;;
9842;SDS011;4960;48.736;9.108;2022-11-20T00:13:10;4.40;;;3.97;;
9842;SDS011;4960;48.736;9.108;2022-11-20T00:15:37;4.47;;;4.07;;
9842;SDS011;4960;48.736;9.108;2022-11-20T00:18:04;8.07;;;4.30;;
9842;SDS011;4960;48.736;9.108;2022-11-20T00:20:31;5.00;;;4.17;;
9842;SDS011;4960;48.736;9.108;2022-11-20T00:23:00;5.33;;;4.00;;
9842;SDS011;4960;48.736;9.108;2022-11-20T00:25:27;4.00;;;3.60;;
9842;SDS011;4960;48.736;9.108;2022-11-20T00:27:54;3.80;;;3.50;;
9842;SDS011;4960;48.736;9.108;2022-11-20T00:30:21;5.20;;;3.80;;
9842;SDS011;4960;48.736;9.108;2022-11-20T00:32:48;3.47;;;3.03;;
9842;SDS011;4960;48.736;9.108;2022-11-20T00:35:15;4.27;;;3.80;;
9842;SDS011;4960;48.736;9.108;2022-11-20T00:37:43;4.27;;;3.53;;
9842;SDS011;4960;48.736;9.108;2022-11-20T00:40:12;3.90;;;3.50;;
9842;SDS011;4960;48.736;9.108;2022-11-20T00:42:39;4.03;;;3.57;;
9842;SDS011;4960;48.736;9.108;2022-11-20T00:45:06;4.00;;;3.60;;
9842;SDS011;4960;48.736;9.108;2022-11-20T00:47:34;4.47;;;3.57;;
9842;SDS011;4960;48.736;9.108;2022-11-20T00:50:01;5.97;;;4.03;;
9842;SDS011;4960;48.736;9.108;2022-11-20T00:52:28;6.23;;;3.50;;
9842;SDS011;4960;48.736;9.108;2022-11-20T00:54:55;5.33;;;3.43;;
9842;SDS011;4960;48.736;9.108;2022-11-20T00:57:24;4.93;;;3.77;;
9842;SDS011;4960;48.736;9.108;2022-11-20T00:59:51;6.87;;;3.40;;
9842;SDS011;4960;48.736;9.108;2022-11-20T01:02:18;4.23;;;3.67;;
9842;SDS011;4960;48.736;9.108;2022-11-20T01:04:45;5.43;;;3.47;;
9842;SDS011;4960;48.736;9.108;2022-11-20T01:07:12;4.20;;;3.57;;
9842;SDS011;4960;48.736;9.108;2022-11-20T01:09:39;4.93;;;3.57;;
9842;SDS011;4960;48.736;9.108;2022-11-20T01:12:07;3.87;;;3.57;;
9842;SDS011;4960;48.736;9.108;2022-11-20T01:14:35;3.80;;;3.00;;
9842;SDS011;4960;48.736;9.108;2022-11-20T01:17:02;6.57;;;3.60;;
9842;SDS011;4960;48.736;9.108;2022-11-20T01:19:29;3.63;;;3.17;;
9842;SDS011;4960;48.736;9.108;2022-11-20T01:21:56;5.23;;;3.13;;
9842;SDS011;4960;48.736;9.108;2022-11-20T01:24:24;10.10;;;3.50;;
9842;SDS011;4960;48.736;9.108;2022-11-20T01:26:51;3.87;;;3.27;;
9842;SDS011;4960;48.736;9.108;2022-11-20T01:29:19;3.73;;;3.10;;
9842;SDS011;4960;48.736;9.108;2022-11-20T01:31:48;4.47;;;3.37;;
9842;SDS011;4960;48.736;9.108;2022-11-20T01:34:17;5.07;;;3.43;;
9842;SDS011;4960;48.736;9.108;2022-11-20T01:36:45;5.93;;;2.90;;
9842;SDS011;4960;48.736;9.108;2022-11-20T01:39:13;4.13;;;3.30;;
9842;SDS011;4960;48.736;9.108;2022-11-20T01:41:40;3.57;;;2.97;;
9842;SDS011;4960;48.736;9.108;2022-11-20T01:47:13;3.00;;;2.70;;
9842;SDS011;4960;48.736;9.108;2022-11-20T01:49:42;3.57;;;3.27;;
9842;SDS011;4960;48.736;9.108;2022-11-20T01:52:11;6.03;;;2.87;;
9842;SDS011;4960;48.736;9.108;2022-11-20T01:54:41;3.63;;;2.60;;
9842;SDS011;4960;48.736;9.108;2022-11-20T01:57:10;3.60;;;2.83;;
9842;SDS011;4960;48.736;9.108;2022-11-20T01:59:39;3.97;;;2.97;;
9842;SDS011;4960;48.736;9.108;2022-11-20T02:02:08;3.57;;;3.27;;
9842;SDS011;4960;48.736;9.108;2022-11-20T02:04:37;3.83;;;2.47;;
9842;SDS011;4960;48.736;9.108;2022-11-20T02:07:04;4.67;;;3.00;;
9842;SDS011;4960;48.736;9.108;2022-11-20T02:09:32;5.93;;;3.57;;
9842;SDS011;4960;48.736;9.108;2022-11-20T02:11:59;3.57;;;3.13;;
9842;SDS011;4960;48.736;9.108;2022-11-20T02:14:27;5.70;;;3.50;;
9842;SDS011;4960;48.736;9.108;2022-11-20T02:16:53;7.33;;;3.60;;
9842;SDS011;4960;48.736;9.108;2022-11-20T02:19:22;6.37;;;3.50;;
9842;SDS011;4960;48.736;9.108;2022-11-20T02:21:54;4.73;;;2.97;;
9842;SDS011;4960;48.736;9.108;2022-11-20T02:24:24;6.33;;;3.23;;
9842;SDS011;4960;48.736;9.108;2022-11-20T02:26:52;3.53;;;3.03;;
9842;SDS011;4960;48.736;9.108;2022-11-20T02:29:23;3.07;;;2.77;;
9842;SDS011;4960;48.736;9.108;2022-11-20T02:31:50;3.63;;;2.87;;
9842;SDS011;4960;48.736;9.108;2022-11-20T02:34:18;3.10;;;2.60;;
9842;SDS011;4960;48.736;9.108;2022-11-20T02:36:45;3.00;;;2.70;;
9842;SDS011;4960;48.736;9.108;2022-11-20T02:39:13;5.03;;;2.97;;
9842;SDS011;4960;48.736;9.108;2022-11-20T02:41:43;2.90;;;2.60;;
9842;SDS011;4960;48.736;9.108;2022-11-20T02:44:11;3.33;;;2.80;;
9842;SDS011;4960;48.736;9.108;2022-11-20T02:46:38;2.73;;;2.53;;
9842;SDS011;4960;48.736;9.108;2022-11-20T02:49:06;3.90;;;2.80;;
9842;SDS011;4960;48.736;9.108;2022-11-20T02:51:33;3.13;;;2.93;;
9842;SDS011;4960;48.736;9.108;2022-11-20T02:54:00;5.40;;;2.83;;
9842;SDS011;4960;48.736;9.108;2022-11-20T02:56:27;3.27;;;2.93;;
9842;SDS011;4960;48.736;9.108;2022-11-20T02:58:56;4.10;;;2.80;;
9842;SDS011;4960;48.736;9.108;2022-11-20T03:01:23;3.63;;;3.33;;
9842;SDS011;4960;48.736;9.108;2022-11-20T03:03:50;5.27;;;3.30;;
9842;SDS011;4960;48.736;9.108;2022-11-20T03:06:19;3.53;;;3.10;;
9842;SDS011;4960;48.736;9.108;2022-11-20T03:08:46;3.97;;;3.23;;
9842;SDS011;4960;48.736;9.108;2022-11-20T03:11:13;3.73;;;3.30;;
9842;SDS011;4960;48.736;9.108;2022-11-20T03:13:41;5.30;;;3.30;;
9842;SDS011;4960;48.736;9.108;2022-11-20T03:16:10;3.80;;;3.23;;
9842;SDS011;4960;48.736;9.108;2022-11-20T03:18:38;3.33;;;3.00;;
9842;SDS011;4960;48.736;9.108;2022-11-20T03:21:05;4.37;;;3.33;;
9842;SDS011;4960;48.736;9.108;2022-11-20T03:23:33;3.93;;;3.53;;
9842;SDS011;4960;48.736;9.108;2022-11-20T03:26:10;3.43;;;3.13;;
9842;SDS011;4960;48.736;9.108;2022-11-20T03:28:37;13.47;;;3.80;;
9842;SDS011;4960;48.736;9.108;2022-11-20T03:31:05;4.83;;;3.30;;
9842;SDS011;4960;48.736;9.108;2022-11-20T03:33:34;3.77;;;3.40;;
9842;SDS011;4960;48.736;9.108;2022-11-20T03:36:01;6.20;;;3.50;;
9842;SDS011;4960;48.736;9.108;2022-11-20T03:38:29;4.03;;;3.23;;
9842;SDS011;4960;48.736;9.108;2022-11-20T03:40:58;5.80;;;4.20;;
9842;SDS011;4960;48.736;9.108;2022-11-20T03:43:25;4.97;;;4.03;;
9842;SDS011;4960;48.736;9.108;2022-11-20T03:45:52;4.43;;;3.80;;
9842;SDS011;4960;48.736;9.108;2022-11-20T03:48:19;6.43;;;3.73;;
9842;SDS011;4960;48.736;9.108;2022-11-20T03:50:47;5.07;;;3.77;;
9842;SDS011;4960;48.736;9.108;2022-11-20T03:53:15;4.60;;;4.00;;
9842;SDS011;4960;48.736;9.108;2022-11-20T03:55:42;4.67;;;3.97;;
9842;SDS011;4960;48.736;9.108;2022-11-20T03:58:09;4.30;;;3.90;;
9842;SDS011;4960;48.736;9.108;2022-11-20T04:00:38;4.80;;;4.23;;
9842;SDS011;4960;48.736;9.108;2022-11-20T04:03:05;6.43;;;4.30;;
9842;SDS011;4960;48.736;9.108;2022-11-20T04:05:33;6.83;;;4.20;;
9842;SDS011;4960;48.736;9.108;2022-11-20T04:08:01;4.40;;;4.00;;
9842;SDS011;4960;48.736;9.108;2022-11-20T04:10:28;4.03;;;3.70;;
9842;SDS011;4960;48.736;9.108;2022-11-20T04:12:55;5.07;;;4.10;;
9842;SDS011;4960;48.736;9.108;2022-11-20T04:15:22;4.30;;;3.90;;
9842;SDS011;4960;48.736;9.108;2022-11-20T04:17:50;6.57;;;3.87;;
9842;SDS011;4960;48.736;9.108;2022-11-20T04:20:17;5.40;;;4.13;;
9842;SDS011;4960;48.736;9.108;2022-11-20T04:22:44;6.30;;;3.80;;
9842;SDS011;4960;48.736;9.108;2022-11-20T04:25:13;4.47;;;3.90;;
9842;SDS011;4960;48.736;9.108;2022-11-20T04:27:40;5.20;;;3.90;;
9842;SDS011;4960;48.736;9.108;2022-11-20T04:30:07;5.33;;;4.23;;
9842;SDS011;4960;48.736;9.108;2022-11-20T04:32:35;4.20;;;3.40;;
9842;SDS011;4960;48.736;9.108;2022-11-20T04:35:02;3.80;;;3.50;;
9842;SDS011;4960;48.736;9.108;2022-11-20T04:37:29;4.10;;;3.70;;
9842;SDS011;4960;48.736;9.108;2022-11-20T04:39:56;6.80;;;3.77;;
9842;SDS011;4960;48.736;9.108;2022-11-20T04:42:25;4.10;;;3.53;;
9842;SDS011;4960;48.736;9.108;2022-11-20T04:44:55;5.10;;;3.30;;
9842;SDS011;4960;48.736;9.108;2022-11-20T04:47:23;4.03;;;3.10;;
9842;SDS011;4960;48.736;9.108;2022-11-20T04:49:50;3.83;;;3.43;;
9842;SDS011;4960;48.736;9.108;2022-11-20T04:52:17;3.87;;;3.33;;
9842;SDS011;4960;48.736;9.108;2022-11-20T04:54:44;4.63;;;3.50;;
9842;SDS011;4960;48.736;9.108;2022-11-20T04:57:12;5.27;;;3.37;;
9842;SDS011;4960;48.736;9.108;2022-11-20T04:59:41;4.03;;;3.40;;
9842;SDS011;4960;48.736;9.108;2022-11-20T05:02:08;3.47;;;3.17;;
9842;SDS011;4960;48.736;9.108;2022-11-20T05:04:35;4.93;;;3.20;;
9842;SDS011;4960;48.736;9.108;2022-11-20T05:07:03;5.57;;;3.53;;
9842;SDS011;4960;48.736;9.108;2022-11-20T05:09:30;4.03;;;3.33;;
9842;SDS011;4960;48.736;9.108;2022-11-20T05:11:57;6.30;;;3.27;;
9842;SDS011;4960;48.736;9.108;2022-11-20T05:14:24;3.47;;;3.13;;
9842;SDS011;4960;48.736;9.108;2022-11-20T05:16:53;7.60;;;2.77;;
9842;SDS011;4960;48.736;9.108;2022-11-20T05:19:20;4.10;;;3.03;;
9842;SDS011;4960;48.736;9.108;2022-11-20T05:21:47;3.10;;;2.80;;
9842;SDS011;4960;48.736;9.108;2022-11-20T05:24:14;5.20;;;3.10;;
9842;SDS011;4960;48.736;9.108;2022-11-20T05:26:42;3.27;;;2.97;;
9842;SDS011;4960;48.736;9.108;2022-11-20T05:29:09;4.37;;;3.10;;
9842;SDS011;4960;48.736;9.108;2022-11-20T05:31:38;3.67;;;3.07;;
9842;SDS011;4960;48.736;9.108;2022-11-20T05:34:06;3.00;;;2.80;;
9842;SDS011;4960;48.736;9.108;2022-11-20T05:36:34;2.97;;;2.67;;
9842;SDS011;4960;48.736;9.108;2022-11-20T05:39:01;3.37;;;2.90;;
9842;SDS011;4960;48.736;9.108;2022-11-20T05:41:28;3.20;;;2.90;;
9842;SDS011;4960;48.736;9.108;2022-11-20T05:43:55;3.07;;;2.77;;
9842;SDS011;4960;48.736;9.108;2022-11-20T05:46:23;3.40;;;2.80;;
9842;SDS011;4960;48.736;9.108;2022-11-20T05:48:50;2.63;;;2.43;;
9842;SDS011;4960;48.736;9.108;2022-11-20T05:51:19;3.03;;;2.70;;
9842;SDS011;4960;48.736;9.108;2022-11-20T05:53:46;3.77;;;2.93;;
9842;SDS011;4960;48.736;9.108;2022-11-20T05:56:14;3.23;;;2.93;;
9842;SDS011;4960;48.736;9.108;2022-11-20T05:58:41;4.73;;;2.90;;
9842;SDS011;4960;48.736;9.108;2022-11-20T06:01:09;2.70;;;2.50;;
9842;SDS011;4960;48.736;9.108;2022-11-20T06:03:37;3.90;;;2.83;;
9842;SDS011;4960;48.736;9.108;2022-11-20T06:06:05;4.67;;;3.17;;
9842;SDS011;4960;48.736;9.108;2022-11-20T06:08:33;5.90;;;3.00;;
9842;SDS011;4960;48.736;9.108;2022-11-20T06:11:03;2.90;;;2.60;;
9842;SDS011;4960;48.736;9.108;2022-11-20T06:13:30;2.77;;;2.57;;
9842;SDS011;4960;48.736;9.108;2022-11-20T06:15:57;4.77;;;2.70;;
9842;SDS011;4960;48.736;9.108;2022-11-20T06:18:25;3.13;;;2.83;;
9842;SDS011;4960;48.736;9.108;2022-11-20T06:20:58;3.63;;;2.50;;
9842;SDS011;4960;48.736;9.108;2022-11-20T06:23:27;3.30;;;2.30;;
9842;SDS011;4960;48.736;9.108;2022-11-20T06:25:55;4.90;;;2.90;;
9842;SDS011;4960;48.736;9.108;2022-11-20T06:28:23;3.33;;;2.30;;
9842;SDS011;4960;48.736;9.108;2022-11-20T06:30:50;5.90;;;2.83;;
9842;SDS011;4960;48.736;9.108;2022-11-20T06:33:17;2.60;;;2.40;;
9842;SDS011;4960;48.736;9.108;2022-11-20T06:35:44;2.60;;;2.37;;
9842;SDS011;4960;48.736;9.108;2022-11-20T06:38:11;3.27;;;2.67;;
9842;SDS011;4960;48.736;9.108;2022-11-20T06:40:39;3.73;;;2.43;;
9842;SDS011;4960;48.736;9.108;2022-11-20T06:43:08;2.93;;;2.63;;
9842;SDS011;4960;48.736;9.108;2022-11-20T06:45:35;3.47;;;2.53;;
9842;SDS011;4960;48.736;9.108;2022-11-20T06:48:03;2.67;;;2.47;;
9842;SDS011;4960;48.736;9.108;2022-11-20T06:50:30;2.93;;;2.30;;
9842;SDS011;4960;48.736;9.108;2022-11-20T06:53:00;2.67;;;2.47;;
9842;SDS011;4960;48.736;9.108;2022-11-20T06:55:27;3.57;;;2.40;;
9842;SDS011;4960;48.736;9.108;2022-11-20T06:57:54;2.83;;;2.50;;
9842;SDS011;4960;48.736;9.108;2022-11-20T07:00:22;2.90;;;2.23;;
9842;SDS011;4960;48.736;9.108;2022-11-20T07:02:50;4.03;;;2.50;;
9842;SDS011;4960;48.736;9.108;2022-11-20T07:05:17;2.73;;;2.23;;
9842;SDS011;4960;48.736;9.108;2022-11-20T07:07:44;3.07;;;2.77;;
9842;SDS011;4960;48.736;9.108;2022-11-20T07:10:11;2.80;;;2.60;;
9842;SDS011;4960;48.736;9.108;2022-11-20T07:12:38;2.87;;;2.50;;
9842;SDS011;4960;48.736;9.108;2022-11-20T07:15:06;2.90;;;2.57;;
9842;SDS011;4960;48.736;9.108;2022-11-20T07:17:35;5.00;;;2.37;;
9842;SDS011;4960;48.736;9.108;2022-11-20T07:20:02;2.70;;;2.50;;
9842;SDS011;4960;48.736;9.108;2022-11-20T07:22:29;3.47;;;2.30;;
9842;SDS011;4960;48.736;9.108;2022-11-20T07:24:57;2.53;;;2.17;;
9842;SDS011;4960;48.736;9.108;2022-11-20T07:27:24;2.73;;;2.53;;
9842;SDS011;4960;48.736;9.108;2022-11-20T07:29:54;2.67;;;2.47;;
9842;SDS011;4960;48.736;9.108;2022-11-20T07:32:21;2.27;;;2.07;;
9842;SDS011;4960;48.736;9.108;2022-11-20T07:34:49;2.20;;;2.00;;
9842;SDS011;4960;48.736;9.108;2022-11-20T07:37:17;2.23;;;2.07;;
9842;SDS011;4960;48.736;9.108;2022-11-20T07:39:44;3.40;;;2.20;;
9842;SDS011;4960;48.736;9.108;2022-11-20T07:42:11;2.93;;;2.10;;
9842;SDS011;4960;48.736;9.108;2022-11-20T07:44:38;2.03;;;1.87;;
9842;SDS011;4960;48.736;9.108;2022-11-20T07:47:05;4.00;;;2.10;;
9842;SDS011;4960;48.736;9.108;2022-11-20T07:49:33;2.77;;;2.17;;
9842;SDS011;4960;48.736;9.108;2022-11-20T07:52:01;2.10;;;1.97;;
9842;SDS011;4960;48.736;9.108;2022-11-20T07:54:28;3.33;;;2.20;;
9842;SDS011;4960;48.736;9.108;2022-11-20T07:56:55;2.93;;;2.00;;
9842;SDS011;4960;48.736;9.108;2022-11-20T07:59:23;3.00;;;2.00;;
9842;SDS011;4960;48.736;9.108;2022-11-20T08:01:50;2.73;;;2.37;;
9842;SDS011;4960;48.736;9.108;2022-11-20T08:04:17;1.90;;;1.80;;
9842;SDS011;4960;48.736;9.108;2022-11-20T08:06:44;2.27;;;2.03;;
9842;SDS011;4960;48.736;9.108;2022-11-20T08:09:12;3.63;;;1.93;;
9842;SDS011;4960;48.736;9.108;2022-11-20T08:11:40;2.33;;;1.73;;
9842;SDS011;4960;48.736;9.108;2022-11-20T08:14:24;2.50;;;2.17;;
9842;SDS011;4960;48.736;9.108;2022-11-20T08:16:52;5.23;;;2.10;;
9842;SDS011;4960;48.736;9.108;2022-11-20T08:19:20;2.30;;;1.73;;
9842;SDS011;4960;48.736;9.108;2022-11-20T08:21:47;1.90;;;1.73;;
9842;SDS011;4960;48.736;9.108;2022-11-20T08:24:15;2.83;;;1.80;;
9842;SDS011;4960;48.736;9.108;2022-11-20T08:26:43;2.30;;;2.10;;
9842;SDS011;4960;48.736;9.108;2022-11-20T08:29:10;2.63;;;1.70;;
9842;SDS011;4960;48.736;9.108;2022-11-20T08:31:37;1.70;;;1.60;;
9842;SDS011;4960;48.736;9.108;2022-11-20T08:34:04;2.17;;;2.07;;
9842;SDS011;4960;48.736;9.108;2022-11-20T08:36:32;1.70;;;1.60;;
9842;SDS011;4960;48.736;9.108;2022-11-20T08:39:00;3.10;;;2.13;;
9842;SDS011;4960;48.736;9.108;2022-11-20T08:41:28;3.23;;;1.97;;
9842;SDS011;4960;48.736;9.108;2022-11-20T08:43:58;4.13;;;2.00;;
9842;SDS011;4960;48.736;9.108;2022-11-20T08:46:27;2.50;;;1.80;;
9842;SDS011;4960;48.736;9.108;2022-11-20T08:48:54;2.37;;;1.57;;
9842;SDS011;4960;48.736;9.108;2022-11-20T08:51:22;2.20;;;2.00;;
9842;SDS011;4960;48.736;9.108;2022-11-20T08:53:49;3.50;;;1.50;;
9842;SDS011;4960;48.736;9.108;2022-11-20T08:56:16;1.57;;;1.47;;
9842;SDS011;4960;48.736;9.108;2022-11-20T08:58:45;1.80;;;1.70;;
9842;SDS011;4960;48.736;9.108;2022-11-20T09:01:12;1.57;;;1.47;;
9842;SDS011;4960;48.736;9.108;2022-11-20T09:03:39;2.07;;;1.40;;
9842;SDS011;4960;48.736;9.108;2022-11-20T09:06:06;1.63;;;1.50;;
9842;SDS011;4960;48.736;9.108;2022-11-20T09:08:34;1.30;;;1.20;;
9842;SDS011;4960;48.736;9.108;2022-11-20T09:11:02;1.43;;;1.30;;
9842;SDS011;4960;48.736;9.108;2022-11-20T09:13:29;3.40;;;1.30;;
9842;SDS011;4960;48.736;9.108;2022-11-20T09:15:59;2.80;;;1.27;;
9842;SDS011;4960;48.736;9.108;2022-11-20T09:18:27;1.50;;;1.40;;
9842;SDS011;4960;48.736;9.108;2022-11-20T09:20:56;1.40;;;1.23;;
9842;SDS011;4960;48.736;9.108;2022-11-20T09:23:23;1.40;;;1.00;;
9842;SDS011;4960;48.736;9.108;2022-11-20T09:25:51;1.20;;;1.20;;
9842;SDS011;4960;48.736;9.108;2022-11-20T09:28:20;1.87;;;1.30;;
9842;SDS011;4960;48.736;9.108;2022-11-20T09:30:47;1.30;;;1.20;;
9842;SDS011;4960;48.736;9.108;2022-11-20T09:33:16;1.80;;;1.20;;
9842;SDS011;4960;48.736;9.108;2022-11-20T09:35:43;1.00;;;1.00;;
9842;SDS011;4960;48.736;9.108;2022-11-20T09:38:10;2.27;;;1.40;;
9842;SDS011;4960;48.736;9.108;2022-11-20T09:40:39;1.20;;;1.10;;
9842;SDS011;4960;48.736;9.108;2022-11-20T09:43:09;1.27;;;1.03;;
9842;SDS011;4960;48.736;9.108;2022-11-20T09:45:38;1.43;;;1.20;;
9842;SDS011;4960;48.736;9.108;2022-11-20T09:48:14;0.90;;;0.90;;
9842;SDS011;4960;48.736;9.108;2022-11-20T09:50:47;1.57;;;0.73;;
9842;SDS011;4960;48.736;9.108;2022-11-20T09:53:20;0.90;;;0.77;;
9842;SDS011;4960;48.736;9.108;2022-11-20T09:55:50;0.80;;;0.80;;
9842;SDS011;4960;48.736;9.108;2022-11-20T09:58:21;1.00;;;1.00;;
9842;SDS011;4960;48.736;9.108;2022-11-20T10:00:54;1.13;;;1.03;;
9842;SDS011;4960;48.736;9.108;2022-11-20T10:03:26;0.80;;;0.80;;
9842;SDS011;4960;48.736;9.108;2022-11-20T10:05:58;0.70;;;0.70;;
9842;SDS011;4960;48.736;9.108;2022-11-20T10:08:28;1.63;;;1.13;;
9842;SDS011;4960;48.736;9.108;2022-11-20T10:10:58;1.80;;;1.13;;
9842;SDS011;4960;48.736;9.108;2022-11-20T10:13:31;1.70;;;1.33;;
9842;SDS011;4960;48.736;9.108;2022-11-20T10:16:03;1.10;;;1.10;;
9842;SDS011;4960;48.736;9.108;2022-11-20T10:18:37;1.20;;;1.10;;
9842;SDS011;4960;48.736;9.108;2022-11-20T10:21:08;2.43;;;1.10;;
9842;SDS011;4960;48.736;9.108;2022-11-20T10:23:55;1.30;;;1.20;;
9842;SDS011;4960;48.736;9.108;2022-11-20T10:26:25;1.10;;;1.00;;
9842;SDS011;4960;48.736;9.108;2022-11-20T10:29:01;3.47;;;1.47;;
9842;SDS011;4960;48.736;9.108;2022-11-20T10:31:34;1.10;;;1.10;;
9842;SDS011;4960;48.736;9.108;2022-11-20T10:34:03;2.83;;;1.10;;
9842;SDS011;4960;48.736;9.108;2022-11-20T10:36:35;1.87;;;1.10;;
9842;SDS011;4960;48.736;9.108;2022-11-20T10:39:06;0.97;;;0.90;;
9842;SDS011;4960;48.736;9.108;2022-11-20T10:41:34;1.00;;;1.00;;
9842;SDS011;4960;48.736;9.108;2022-11-20T10:44:05;1.10;;;1.00;;
9842;SDS011;4960;48.736;9.108;2022-11-20T10:46:37;1.23;;;1.10;;
9842;SDS011;4960;48.736;9.108;2022-11-20T10:49:11;1.00;;;1.00;;
9842;SDS011;4960;48.736;9.108;2022-11-20T10:51:42;1.67;;;1.03;;
9842;SDS011;4960;48.736;9.108;2022-11-20T10:54:14;1.60;;;0.90;;
9842;SDS011;4960;48.736;9.108;2022-11-20T10:56:45;1.50;;;0.97;;
9842;SDS011;4960;48.736;9.108;2022-11-20T11:01:55;1.57;;;1.00;;
9842;SDS011;4960;48.736;9.108;2022-11-20T11:04:28;0.80;;;0.80;;
9842;SDS011;4960;48.736;9.108;2022-11-20T11:06:58;1.50;;;1.10;;
9842;SDS011;4960;48.736;9.108;2022-11-20T11:09:31;2.13;;;1.20;;
9842;SDS011;4960;48.736;9.108;2022-11-20T11:11:59;1.57;;;1.17;;
9842;SDS011;4960;48.736;9.108;2022-11-20T11:14:26;1.37;;;1.27;;
9842;SDS011;4960;48.736;9.108;2022-11-20T11:16:54;2.07;;;1.40;;
9842;SDS011;4960;48.736;9.108;2022-11-20T11:19:21;4.43;;;1.50;;
9842;SDS011;4960;48.736;9.108;2022-11-20T11:21:50;1.87;;;1.77;;
9842;SDS011;4960;48.736;9.108;2022-11-20T11:24:21;2.17;;;1.30;;
9842;SDS011;4960;48.736;9.108;2022-11-20T11:26:55;3.53;;;1.20;;
9842;SDS011;4960;48.736;9.108;2022-11-20T11:29:23;1.50;;;1.40;;
9842;SDS011;4960;48.736;9.108;2022-11-20T11:32:02;1.97;;;1.53;;
9842;SDS011;4960;48.736;9.108;2022-11-20T11:34:29;1.50;;;1.40;;
9842;SDS011;4960;48.736;9.108;2022-11-20T11:36:57;4.17;;;1.70;;
9842;SDS011;4960;48.736;9.108;2022-11-20T11:39:26;3.53;;;1.40;;
9842;SDS011;4960;48.736;9.108;2022-11-20T11:41:54;3.23;;;1.30;;
9842;SDS011;4960;48.736;9.108;2022-11-20T11:44:23;2.90;;;1.60;;
9842;SDS011;4960;48.736;9.108;2022-11-20T11:47:10;1.63;;;1.20;;
9842;SDS011;4960;48.736;9.108;2022-11-20T11:49:38;3.43;;;1.77;;
9842;SDS011;4960;48.736;9.108;2022-11-20T11:52:08;3.40;;;1.20;;
9842;SDS011;4960;48.736;9.108;2022-11-20T11:54:41;1.67;;;1.00;;
9842;SDS011;4960;48.736;9.108;2022-11-20T11:57:12;4.03;;;1.30;;
9842;SDS011;4960;48.736;9.108;2022-11-20T11:59:44;3.87;;;2.40;;
9842;SDS011;4960;48.736;9.108;2022-11-20T12:02:15;2.03;;;1.20;;
9842;SDS011;4960;48.736;9.108;2022-11-20T12:04:49;5.17;;;1.40;;
9842;SDS011;4960;48.736;9.108;2022-11-20T12:07:19;2.30;;;1.50;;
9842;SDS011;4960;48.736;9.108;2022-11-20T12:09:49;3.10;;;1.60;;
9842;SDS011;4960;48.736;9.108;2022-11-20T12:12:20;2.97;;;1.30;;
9842;SDS011;4960;48.736;9.108;2022-11-20T12:14:47;4.63;;;1.70;;
9842;SDS011;4960;48.736;9.108;2022-11-20T12:17:17;5.10;;;2.00;;
9842;SDS011;4960;48.736;9.108;2022-11-20T12:19:44;2.03;;;1.10;;
9842;SDS011;4960;48.736;9.108;2022-11-20T12:22:13;1.20;;;1.00;;
9842;SDS011;4960;48.736;9.108;2022-11-20T12:24:52;3.00;;;1.83;;
9842;SDS011;4960;48.736;9.108;2022-11-20T12:30:07;4.47;;;0.83;;
9842;SDS011;4960;48.736;9.108;2022-11-20T12:35:26;1.50;;;1.00;;
9842;SDS011;4960;48.736;9.108;2022-11-20T12:37:59;0.90;;;0.90;;
9842;SDS011;4960;48.736;9.108;2022-11-20T12:40:35;1.50;;;1.10;;
9842;SDS011;4960;48.736;9.108;2022-11-20T12:43:07;3.33;;;1.20;;
9842;SDS011;4960;48.736;9.108;2022-11-20T12:46:03;2.17;;;1.00;;
9842;SDS011;4960;48.736;9.108;2022-11-20T12:51:27;2.03;;;0.87;;
9842;SDS011;4960;48.736;9.108;2022-11-20T12:54:02;1.43;;;1.10;;
9842;SDS011;4960;48.736;9.108;2022-11-20T12:56:37;5.10;;;1.13;;
9842;SDS011;4960;48.736;9.108;2022-11-20T12:59:10;3.10;;;1.10;;
9842;SDS011;4960;48.736;9.108;2022-11-20T13:01:45;1.20;;;0.90;;
9842;SDS011;4960;48.736;9.108;2022-11-20T13:04:18;0.80;;;0.80;;
9842;SDS011;4960;48.736;9.108;2022-11-20T13:06:46;1.60;;;1.17;;
9842;SDS011;4960;48.736;9.108;2022-11-20T13:09:15;1.93;;;1.27;;
9842;SDS011;4960;48.736;9.108;2022-11-20T13:11:45;1.83;;;0.70;;
9842;SDS011;4960;48.736;9.108;2022-11-20T13:14:18;2.27;;;0.90;;
9842;SDS011;4960;48.736;9.108;2022-11-20T13:16:49;1.77;;;0.63;;
9842;SDS011;4960;48.736;9.108;2022-11-20T13:19:17;1.43;;;0.77;;
9842;SDS011;4960;48.736;9.108;2022-11-20T13:21:45;1.13;;;0.80;;
9842;SDS011;4960;48.736;9.108;2022-11-20T13:24:21;3.57;;;0.60;;
9842;SDS011;4960;48.736;9.108;2022-11-20T13:27:00;2.30;;;0.70;;
9842;SDS011;4960;48.736;9.108;2022-11-20T13:29:27;2.07;;;0.90;;
9842;SDS011;4960;48.736;9.108;2022-11-20T13:32:01;2.90;;;0.77;;
9842;SDS011;4960;48.736;9.108;2022-11-20T13:34:29;2.53;;;0.70;;
9842;SDS011;4960;48.736;9.108;2022-11-20T13:36:57;1.63;;;0.67;;
9842;SDS011;4960;48.736;9.108;2022-11-20T13:39:26;1.43;;;1.20;;
9842;SDS011;4960;48.736;9.108;2022-11-20T13:41:54;3.73;;;1.10;;
9842;SDS011;4960;48.736;9.108;2022-11-20T13:44:25;1.37;;;0.90;;
9842;SDS011;4960;48.736;9.108;2022-11-20T13:46:52;3.50;;;1.90;;
9842;SDS011;4960;48.736;9.108;2022-11-20T13:49:27;1.87;;;0.90;;
9842;SDS011;4960;48.736;9.108;2022-11-20T13:51:58;2.57;;;1.00;;
9842;SDS011;4960;48.736;9.108;2022-11-20T14:00:07;2.50;;;0.80;;
9842;SDS011;4960;48.736;9.108;2022-11-20T14:02:36;0.90;;;0.87;;
9842;SDS011;4960;48.736;9.108;2022-11-20T14:05:04;1.43;;;0.83;;
9842;SDS011;4960;48.736;9.108;2022-11-20T14:07:32;1.70;;;0.80;;
9842;SDS011;4960;48.736;9.108;2022-11-20T14:10:02;2.13;;;0.97;;
9842;SDS011;4960;48.736;9.108;2022-11-20T14:12:30;2.83;;;1.20;;
9842;SDS011;4960;48.736;9.108;2022-11-20T14:14:57;3.47;;;1.17;;
9842;SDS011;4960;48.736;9.108;2022-11-20T14:17:31;2.40;;;0.90;;
9842;SDS011;4960;48.736;9.108;2022-11-20T14:19:59;1.50;;;1.03;;
9842;SDS011;4960;48.736;9.108;2022-11-20T14:22:27;2.83;;;1.00;;
9842;SDS011;4960;48.736;9.108;2022-11-20T14:25:02;1.67;;;1.07;;
9842;SDS011;4960;48.736;9.108;2022-11-20T14:27:32;1.97;;;1.10;;
9842;SDS011;4960;48.736;9.108;2022-11-20T14:30:00;1.63;;;0.87;;
9842;SDS011;4960;48.736;9.108;2022-11-20T14:32:28;2.93;;;1.50;;
9842;SDS011;4960;48.736;9.108;2022-11-20T14:34:58;4.23;;;1.10;;
9842;SDS011;4960;48.736;9.108;2022-11-20T14:37:26;0.90;;;0.90;;
9842;SDS011;4960;48.736;9.108;2022-11-20T14:39:55;1.10;;;0.90;;
9842;SDS011;4960;48.736;9.108;2022-11-20T14:42:24;2.80;;;1.30;;
9842;SDS011;4960;48.736;9.108;2022-11-20T14:44:52;1.27;;;1.17;;
9842;SDS011;4960;48.736;9.108;2022-11-20T14:47:22;1.70;;;1.30;;
9842;SDS011;4960;48.736;9.108;2022-11-20T14:49:51;2.50;;;1.40;;
9842;SDS011;4960;48.736;9.108;2022-11-20T14:52:21;2.13;;;1.10;;
9842;SDS011;4960;48.736;9.108;2022-11-20T14:54:49;2.30;;;1.53;;
9842;SDS011;4960;48.736;9.108;2022-11-20T14:57:20;2.00;;;1.40;;
9842;SDS011;4960;48.736;9.108;2022-11-20T14:59:48;5.17;;;1.43;;
9842;SDS011;4960;48.736;9.108;2022-11-20T15:02:15;1.83;;;1.33;;
9842;SDS011;4960;48.736;9.108;2022-11-20T15:04:46;2.53;;;1.30;;
9842;SDS011;4960;48.736;9.108;2022-11-20T15:07:24;1.80;;;1.10;;
9842;SDS011;4960;48.736;9.108;2022-11-20T15:10:05;2.40;;;1.13;;
9842;SDS011;4960;48.736;9.108;2022-11-20T15:12:33;1.23;;;1.07;;
9842;SDS011;4960;48.736;9.108;2022-11-20T15:15:01;2.47;;;1.23;;
9842;SDS011;4960;48.736;9.108;2022-11-20T15:17:30;3.97;;;1.40;;
9842;SDS011;4960;48.736;9.108;2022-11-20T15:19:57;2.93;;;1.70;;
9842;SDS011;4960;48.736;9.108;2022-11-20T15:22:27;4.13;;;1.77;;
9842;SDS011;4960;48.736;9.108;2022-11-20T15:24:54;4.57;;;1.50;;
9842;SDS011;4960;48.736;9.108;2022-11-20T15:27:21;4.37;;;3.40;;
9842;SDS011;4960;48.736;9.108;2022-11-20T15:29:48;4.10;;;2.87;;
9842;SDS011;4960;48.736;9.108;2022-11-20T15:32:15;4.20;;;2.50;;
9842;SDS011;4960;48.736;9.108;2022-11-20T15:34:43;6.47;;;1.83;;
9842;SDS011;4960;48.736;9.108;2022-11-20T15:37:10;1.50;;;1.40;;
9842;SDS011;4960;48.736;9.108;2022-11-20T15:39:38;4.00;;;1.50;;
9842;SDS011;4960;48.736;9.108;2022-11-20T15:42:05;3.07;;;1.63;;
9842;SDS011;4960;48.736;9.108;2022-11-20T15:44:33;1.90;;;1.50;;